Time;durP1;ratioP1;P1;durP2;ratioP2;P2;SDS_P1;SDS_P2;PMS_P1;PMS_P2;Temp;Humidity;BMP_temperature;BMP_pressure;BME280_temperature;BME280_humidity;BME280_pressure;Samples;Min_cycle;Max_cycle;Signal;HPM_P1;HPM_P2
2021/01/15 00:01:02;;;;;;;26.33;14.33;;;;;;;;;;5055393;28;20232;-87
2021/01/15 00:03:28;;;;;;;23.90;13.30;;;;;;;;;;5055857;28;20156;-87
2021/01/15 00:05:53;;;;;;;27.90;15.40;;;;;;;;;;5055305;28;20178;-87
2021/01/15 00:08:18;;;;;;;35.73;20.00;;;;;;;;;;5055545;28;20225;-87
2021/01/15 00:10:44;;;;;;;26.77;15.40;;;;;;;;;;5055670;28;20176;-86
2021/01/15 00:13:09;;;;;;;26.67;14.37;;;;;;;;;;5055286;28;20945;-87
2021/01/15 00:15:35;;;;;;;29.50;15.37;;;;;;;;;;5055679;28;20186;-87
2021/01/15 00:18:00;;;;;;;28.20;13.57;;;;;;;;;;5055753;28;20211;-87
2021/01/15 00:20:25;;;;;;;24.23;13.93;;;;;;;;;;5075088;28;20170;-87
2021/01/15 00:22:50;;;;;;;18.87;11.70;;;;;;;;;;5075117;28;20297;-87
2021/01/15 00:25:16;;;;;;;21.80;11.53;;;;;;;;;;5073883;28;20234;-87
2021/01/15 00:27:41;;;;;;;19.40;10.67;;;;;;;;;;5075025;28;20197;-87
2021/01/15 00:30:10;;;;;;;18.03;10.43;;;;;;;;;;5075233;28;20521;-87
2021/01/15 00:32:36;;;;;;;16.73;9.93;;;;;;;;;;5073904;28;20533;-87
2021/01/15 00:35:02;;;;;;;17.57;9.60;;;;;;;;;;5073690;28;20210;-87
2021/01/15 00:37:27;;;;;;;16.83;9.93;;;;;;;;;;5072569;28;20262;-87
2021/01/15 00:39:53;;;;;;;18.67;10.00;;;;;;;;;;5074535;28;20179;-86
2021/01/15 00:42:18;;;;;;;17.77;11.03;;;;;;;;;;5074714;28;20182;-87
2021/01/15 00:44:47;;;;;;;20.87;11.63;;;;;;;;;;5075076;28;20206;-87
2021/01/15 00:47:12;;;;;;;15.27;10.37;;;;;;;;;;5074945;28;20175;-88
2021/01/15 00:49:38;;;;;;;16.57;10.20;;;;;;;;;;5074567;28;20182;-87
2021/01/15 00:52:03;;;;;;;24.67;13.73;;;;;;;;;;5073382;28;20317;-87
2021/01/15 00:54:28;;;;;;;22.53;13.13;;;;;;;;;;5074784;28;20213;-88
2021/01/15 00:57:00;;;;;;;25.90;14.17;;;;;;;;;;5073225;28;20290;-88
2021/01/15 00:59:25;;;;;;;24.77;13.67;;;;;;;;;;5070670;28;20986;-87
2021/01/15 01:01:51;;;;;;;21.53;11.83;;;;;;;;;;5073961;28;20327;-87
2021/01/15 01:04:17;;;;;;;22.27;12.57;;;;;;;;;;5072434;28;20299;-87
2021/01/15 01:06:42;;;;;;;19.83;11.97;;;;;;;;;;5074352;28;20229;-87
2021/01/15 01:09:08;;;;;;;15.07;9.83;;;;;;;;;;5074407;28;20172;-87
2021/01/15 01:11:34;;;;;;;21.47;11.87;;;;;;;;;;5074363;28;20229;-87
2021/01/15 01:14:00;;;;;;;14.20;9.53;;;;;;;;;;5074368;28;20832;-87
2021/01/15 01:16:27;;;;;;;17.13;10.37;;;;;;;;;;5074076;28;20202;-89
2021/01/15 01:18:53;;;;;;;17.40;11.70;;;;;;;;;;5072847;28;20236;-89
2021/01/15 01:21:18;;;;;;;18.10;10.10;;;;;;;;;;5073922;28;20175;-88
2021/01/15 01:23:44;;;;;;;14.17;10.27;;;;;;;;;;5074225;28;20290;-88
2021/01/15 01:26:09;;;;;;;16.97;10.00;;;;;;;;;;5072418;28;20273;-88
2021/01/15 01:28:35;;;;;;;20.03;11.27;;;;;;;;;;5074317;28;20183;-88
2021/01/15 01:31:02;;;;;;;17.67;11.43;;;;;;;;;;5074841;28;20179;-90
2021/01/15 01:33:27;;;;;;;17.17;10.63;;;;;;;;;;5074462;28;20170;-88
2021/01/15 01:35:52;;;;;;;17.37;9.50;;;;;;;;;;5073634;28;20229;-88
2021/01/15 01:38:18;;;;;;;14.37;8.40;;;;;;;;;;5074695;28;20167;-88
2021/01/15 01:40:44;;;;;;;12.37;8.20;;;;;;;;;;5072768;28;20316;-88
2021/01/15 01:43:09;;;;;;;12.00;7.33;;;;;;;;;;5074628;28;20618;-88
2021/01/15 01:45:35;;;;;;;12.50;7.73;;;;;;;;;;5074525;28;20643;-88
2021/01/15 01:48:01;;;;;;;13.53;8.80;;;;;;;;;;5074536;28;20171;-87
2021/01/15 01:50:27;;;;;;;14.07;8.37;;;;;;;;;;5074764;28;20178;-88
2021/01/15 01:52:53;;;;;;;17.37;9.67;;;;;;;;;;5075024;28;20202;-88
2021/01/15 01:55:19;;;;;;;11.00;7.20;;;;;;;;;;5075115;28;20601;-88
2021/01/15 01:57:44;;;;;;;9.47;6.73;;;;;;;;;;5074330;28;20183;-88
2021/01/15 02:00:10;;;;;;;12.53;8.23;;;;;;;;;;5074092;28;20254;-89
2021/01/15 02:02:35;;;;;;;9.27;6.30;;;;;;;;;;5074472;28;20565;-88
2021/01/15 02:05:01;;;;;;;12.60;8.70;;;;;;;;;;5074795;28;20517;-87
2021/01/15 02:07:26;;;;;;;12.40;8.23;;;;;;;;;;5074703;28;20213;-87
2021/01/15 02:10:00;;;;;;;10.43;7.30;;;;;;;;;;5074196;28;20224;-87
2021/01/15 02:12:29;;;;;;;11.47;8.00;;;;;;;;;;5074452;28;20165;-87
2021/01/15 02:14:54;;;;;;;12.53;7.43;;;;;;;;;;5074682;28;20179;-88
2021/01/15 02:17:22;;;;;;;12.53;7.67;;;;;;;;;;5073776;28;20170;-87
2021/01/15 02:20:03;;;;;;;14.00;7.33;;;;;;;;;;5074777;28;20644;-87
2021/01/15 02:22:31;;;;;;;14.70;9.03;;;;;;;;;;5074349;28;20167;-87
2021/01/15 02:24:57;;;;;;;13.17;6.90;;;;;;;;;;5074350;28;20203;-87
2021/01/15 02:27:22;;;;;;;15.53;10.23;;;;;;;;;;5074228;28;20560;-87
2021/01/15 02:29:59;;;;;;;15.20;9.70;;;;;;;;;;5073595;28;20174;-87
2021/01/15 02:32:47;;;;;;;18.40;10.67;;;;;;;;;;5074158;28;20197;-87
2021/01/15 02:35:23;;;;;;;11.40;7.17;;;;;;;;;;5074579;28;20274;-87
2021/01/15 02:38:09;;;;;;;17.40;10.90;;;;;;;;;;5074122;28;20197;-88
2021/01/15 02:40:53;;;;;;;20.70;12.10;;;;;;;;;;5074109;28;20245;-88
2021/01/15 02:43:19;;;;;;;15.10;10.03;;;;;;;;;;5073830;28;20244;-88
2021/01/15 02:45:45;;;;;;;18.57;11.00;;;;;;;;;;5073395;28;20576;-88
2021/01/15 02:48:15;;;;;;;15.27;10.17;;;;;;;;;;5073994;28;20167;-88
2021/01/15 02:50:40;;;;;;;16.33;9.27;;;;;;;;;;5073772;28;20198;-88
2021/01/15 02:53:06;;;;;;;17.73;10.03;;;;;;;;;;5072201;28;20203;-88
2021/01/15 02:55:31;;;;;;;16.30;10.60;;;;;;;;;;5073557;28;20174;-88
2021/01/15 02:57:57;;;;;;;17.00;9.63;;;;;;;;;;5073544;28;20178;-88
2021/01/15 03:00:22;;;;;;;17.43;10.00;;;;;;;;;;5075493;28;20182;-88
2021/01/15 03:02:57;;;;;;;15.73;10.20;;;;;;;;;;5077243;28;20227;-87
2021/01/15 03:05:23;;;;;;;17.40;10.07;;;;;;;;;;5077519;28;20205;-87
2021/01/15 03:07:52;;;;;;;18.07;10.53;;;;;;;;;;5077760;28;20175;-88
2021/01/15 03:10:23;;;;;;;17.33;10.77;;;;;;;;;;5077848;28;20178;-87
2021/01/15 03:12:49;;;;;;;17.43;11.13;;;;;;;;;;5077210;28;20167;-86
2021/01/15 03:15:16;;;;;;;17.97;10.90;;;;;;;;;;5077767;28;20179;-87
2021/01/15 03:17:48;;;;;;;18.93;11.57;;;;;;;;;;5077694;28;20167;-87
2021/01/15 03:20:14;;;;;;;20.27;12.73;;;;;;;;;;5076163;28;20529;-87
2021/01/15 03:22:44;;;;;;;27.87;15.00;;;;;;;;;;5077317;28;20167;-87
2021/01/15 03:25:10;;;;;;;26.80;14.17;;;;;;;;;;5077545;28;20206;-87
2021/01/15 03:27:43;;;;;;;31.67;15.83;;;;;;;;;;5077246;28;20255;-87
2021/01/15 03:30:09;;;;;;;29.57;15.70;;;;;;;;;;5077286;28;20172;-86
2021/01/15 03:32:34;;;;;;;22.40;13.07;;;;;;;;;;5076723;28;20190;-87
2021/01/15 03:34:59;;;;;;;30.77;17.73;;;;;;;;;;5077418;28;20640;-87
2021/01/15 03:37:25;;;;;;;23.87;13.93;;;;;;;;;;5076792;28;20194;-87
2021/01/15 03:39:50;;;;;;;20.60;13.00;;;;;;;;;;5076664;28;20237;-87
2021/01/15 03:42:15;;;;;;;22.57;13.67;;;;;;;;;;5076590;28;20262;-87
2021/01/15 03:44:40;;;;;;;21.07;13.40;;;;;;;;;;5076451;28;20207;-88
2021/01/15 03:47:06;;;;;;;26.47;15.47;;;;;;;;;;5076616;28;20224;-88
2021/01/15 03:49:31;;;;;;;25.07;14.57;;;;;;;;;;5077076;28;20227;-88
2021/01/15 03:51:56;;;;;;;29.70;15.57;;;;;;;;;;5077005;28;20190;-87
2021/01/15 03:54:22;;;;;;;35.43;19.07;;;;;;;;;;5077069;28;20240;-89
2021/01/15 03:56:49;;;;;;;38.73;20.20;;;;;;;;;;5076586;28;20208;-88
2021/01/15 03:59:14;;;;;;;50.23;23.70;;;;;;;;;;5075385;28;20179;-88
2021/01/15 04:01:41;;;;;;;37.90;18.97;;;;;;;;;;5076494;28;20676;-88
2021/01/15 04:04:06;;;;;;;46.50;25.03;;;;;;;;;;5076652;28;20202;-88
2021/01/15 04:06:31;;;;;;;33.90;18.57;;;;;;;;;;5076218;28;20168;-88
2021/01/15 04:08:57;;;;;;;76.13;33.97;;;;;;;;;;5076732;28;20648;-88
2021/01/15 04:11:22;;;;;;;34.60;19.50;;;;;;;;;;5076232;28;20197;-89
2021/01/15 04:13:47;;;;;;;38.33;23.33;;;;;;;;;;5076481;28;20262;-89
2021/01/15 04:16:16;;;;;;;55.93;30.50;;;;;;;;;;5076331;28;20190;-89
2021/01/15 04:18:42;;;;;;;30.00;18.77;;;;;;;;;;5076405;28;20171;-88
2021/01/15 04:21:07;;;;;;;25.87;14.67;;;;;;;;;;5076314;28;20668;-89
2021/01/15 04:23:33;;;;;;;25.37;15.53;;;;;;;;;;5076385;28;20179;-89
2021/01/15 04:25:59;;;;;;;21.13;13.10;;;;;;;;;;5076698;28;20178;-89
2021/01/15 04:28:24;;;;;;;21.17;12.50;;;;;;;;;;5076115;28;20170;-89
2021/01/15 04:30:49;;;;;;;26.33;16.33;;;;;;;;;;5075349;28;20175;-89
2021/01/15 04:33:14;;;;;;;20.17;12.27;;;;;;;;;;5075746;28;20179;-88
2021/01/15 04:35:40;;;;;;;18.63;11.83;;;;;;;;;;5075671;28;20179;-88
2021/01/15 04:38:05;;;;;;;25.93;14.20;;;;;;;;;;5076192;28;20270;-88
2021/01/15 04:40:31;;;;;;;29.03;13.60;;;;;;;;;;5074883;28;20172;-88
2021/01/15 04:42:59;;;;;;;23.60;12.43;;;;;;;;;;5076241;28;20195;-88
2021/01/15 04:45:25;;;;;;;38.33;19.70;;;;;;;;;;5075618;28;20199;-88
2021/01/15 04:47:51;;;;;;;37.07;17.83;;;;;;;;;;5075637;28;20216;-88
2021/01/15 04:50:17;;;;;;;38.60;16.57;;;;;;;;;;5075412;28;20246;-88
2021/01/15 04:52:49;;;;;;;27.37;14.53;;;;;;;;;;5075882;28;20167;-88
2021/01/15 04:55:19;;;;;;;34.53;16.90;;;;;;;;;;5075994;28;20168;-88
2021/01/15 04:57:47;;;;;;;29.97;17.37;;;;;;;;;;5075557;28;20209;-88
2021/01/15 05:00:15;;;;;;;28.93;14.67;;;;;;;;;;5075818;28;20174;-88
2021/01/15 05:02:43;;;;;;;27.03;14.93;;;;;;;;;;5075533;28;20280;-88
2021/01/15 05:05:13;;;;;;;33.30;16.30;;;;;;;;;;5074984;28;20213;-88
2021/01/15 05:07:39;;;;;;;31.90;17.30;;;;;;;;;;5075635;28;20250;-88
2021/01/15 05:10:10;;;;;;;36.43;17.47;;;;;;;;;;5075329;28;20258;-88
2021/01/15 05:12:41;;;;;;;31.13;16.03;;;;;;;;;;5075796;28;20665;-88
2021/01/15 05:15:10;;;;;;;33.70;17.87;;;;;;;;;;5075474;28;20201;-88
2021/01/15 05:17:36;;;;;;;25.03;14.17;;;;;;;;;;5075115;28;20178;-88
2021/01/15 05:20:02;;;;;;;36.13;17.10;;;;;;;;;;5075979;28;20504;-88
2021/01/15 05:22:27;;;;;;;36.57;17.83;;;;;;;;;;5074468;28;20261;-87
2021/01/15 05:24:52;;;;;;;26.57;14.47;;;;;;;;;;5074473;28;20214;-87
2021/01/15 05:30:17;;;;;;;23.73;14.70;;;;;;;;;;5074948;28;20182;-88
2021/01/15 05:32:43;;;;;;;32.77;17.73;;;;;;;;;;5074378;28;20182;-88
2021/01/15 05:35:09;;;;;;;28.87;15.40;;;;;;;;;;5074850;28;20526;-88
2021/01/15 05:37:35;;;;;;;21.20;12.80;;;;;;;;;;5074364;28;20186;-88
2021/01/15 05:40:00;;;;;;;23.20;13.40;;;;;;;;;;5073376;28;20175;-89
2021/01/15 05:42:26;;;;;;;24.07;14.10;;;;;;;;;;5074934;28;20175;-88
2021/01/15 05:44:51;;;;;;;24.53;13.83;;;;;;;;;;5074230;28;20203;-88
2021/01/15 05:47:16;;;;;;;25.47;13.33;;;;;;;;;;5074796;28;20197;-88
2021/01/15 05:49:54;;;;;;;25.20;15.60;;;;;;;;;;5074854;28;20169;-88
2021/01/15 05:52:20;;;;;;;39.97;25.83;;;;;;;;;;5075059;28;20610;-87
2021/01/15 05:54:47;;;;;;;26.37;15.63;;;;;;;;;;5074128;28;20172;-89
2021/01/15 05:57:23;;;;;;;40.13;18.20;;;;;;;;;;5074450;28;20187;-89
2021/01/15 05:59:49;;;;;;;31.00;18.07;;;;;;;;;;5074168;28;20252;-88
2021/01/15 06:02:14;;;;;;;25.53;13.93;;;;;;;;;;5074389;28;20223;-89
2021/01/15 06:04:40;;;;;;;38.93;23.43;;;;;;;;;;5074168;28;20198;-89
2021/01/15 06:07:09;;;;;;;25.10;14.53;;;;;;;;;;5073927;28;20679;-89
2021/01/15 06:09:35;;;;;;;19.50;11.27;;;;;;;;;;5073940;28;20174;-88
2021/01/15 06:12:05;;;;;;;21.00;12.00;;;;;;;;;;5072879;28;20201;-88
2021/01/15 06:14:31;;;;;;;26.70;16.67;;;;;;;;;;5074045;28;20183;-88
2021/01/15 06:17:03;;;;;;;33.50;16.40;;;;;;;;;;5074075;28;20167;-88
2021/01/15 06:19:48;;;;;;;32.77;18.10;;;;;;;;;;5074305;28;20167;-88
2021/01/15 06:22:32;;;;;;;35.20;18.63;;;;;;;;;;5074267;28;20171;-88
2021/01/15 06:25:01;;;;;;;29.93;17.07;;;;;;;;;;5073853;28;20199;-89
2021/01/15 06:27:32;;;;;;;29.40;16.73;;;;;;;;;;5073973;28;20632;-89
2021/01/15 06:29:59;;;;;;;37.93;20.43;;;;;;;;;;5074044;28;20155;-88
2021/01/15 06:32:25;;;;;;;39.00;21.90;;;;;;;;;;5073827;28;20167;-87
2021/01/15 06:34:51;;;;;;;57.07;31.67;;;;;;;;;;5072928;28;20168;-87
2021/01/15 06:37:20;;;;;;;62.80;32.00;;;;;;;;;;5073793;28;20246;-88
2021/01/15 06:40:08;;;;;;;134.03;58.67;;;;;;;;;;5074340;28;20215;-88
2021/01/15 06:42:44;;;;;;;59.00;31.70;;;;;;;;;;5073787;28;20167;-88
2021/01/15 06:45:13;;;;;;;52.93;29.63;;;;;;;;;;5073204;28;20195;-87
2021/01/15 06:47:40;;;;;;;48.47;27.57;;;;;;;;;;5074072;28;20197;-88
2021/01/15 06:50:06;;;;;;;75.83;36.87;;;;;;;;;;5073418;28;20519;-88
2021/01/15 06:52:35;;;;;;;43.60;22.63;;;;;;;;;;5073616;28;20172;-87
2021/01/15 06:55:02;;;;;;;52.23;30.83;;;;;;;;;;5073669;28;20206;-88
2021/01/15 06:57:35;;;;;;;101.87;56.23;;;;;;;;;;5073776;28;20205;-88
2021/01/15 07:00:03;;;;;;;39.40;22.13;;;;;;;;;;5072402;28;20172;-88
2021/01/15 07:02:47;;;;;;;77.83;43.83;;;;;;;;;;5074052;28;20226;-88
2021/01/15 07:05:14;;;;;;;50.33;25.90;;;;;;;;;;5073030;28;20242;-88
2021/01/15 07:07:41;;;;;;;50.80;25.80;;;;;;;;;;5073756;28;20631;-88
2021/01/15 07:10:07;;;;;;;40.43;22.93;;;;;;;;;;5073403;28;20175;-88
2021/01/15 07:12:39;;;;;;;45.67;26.20;;;;;;;;;;5056132;28;20202;-88
2021/01/15 07:15:10;;;;;;;56.90;33.50;;;;;;;;;;5073710;28;20172;-89
2021/01/15 07:17:36;;;;;;;81.27;44.47;;;;;;;;;;5072386;28;20523;-88
2021/01/15 07:20:04;;;;;;;39.20;22.93;;;;;;;;;;5073524;28;20171;-88
2021/01/15 07:22:34;;;;;;;29.50;15.83;;;;;;;;;;5073684;28;20170;-88
2021/01/15 07:25:02;;;;;;;27.10;17.60;;;;;;;;;;5073270;28;20208;-88
2021/01/15 07:27:28;;;;;;;50.60;28.00;;;;;;;;;;5073662;28;20228;-89
2021/01/15 07:29:54;;;;;;;24.57;13.20;;;;;;;;;;5072880;28;20633;-89
2021/01/15 07:32:21;;;;;;;28.60;17.43;;;;;;;;;;5073312;28;20200;-88
2021/01/15 07:35:00;;;;;;;28.53;14.43;;;;;;;;;;5073325;28;20182;-88
2021/01/15 07:37:26;;;;;;;22.87;12.57;;;;;;;;;;5072961;28;20546;-87
2021/01/15 07:39:58;;;;;;;44.10;20.80;;;;;;;;;;5073290;28;20168;-88
2021/01/15 07:42:46;;;;;;;34.63;18.33;;;;;;;;;;5073298;28;20175;-88
2021/01/15 07:45:24;;;;;;;31.90;17.33;;;;;;;;;;5073245;28;20214;-88
2021/01/15 07:47:50;;;;;;;28.53;15.27;;;;;;;;;;5076843;28;20183;-88
2021/01/15 07:50:26;;;;;;;57.80;29.87;;;;;;;;;;5076771;28;20171;-88
2021/01/15 07:53:06;;;;;;;32.87;18.73;;;;;;;;;;5077629;28;20590;-88
2021/01/15 07:55:44;;;;;;;43.23;25.13;;;;;;;;;;5076606;28;20167;-88
2021/01/15 07:58:09;;;;;;;45.40;27.43;;;;;;;;;;5077212;28;20167;-88
2021/01/15 08:00:35;;;;;;;46.10;28.93;;;;;;;;;;5076638;28;20178;-88
2021/01/15 08:03:01;;;;;;;133.47;72.53;;;;;;;;;;5077468;28;20195;-88
2021/01/15 08:05:27;;;;;;;50.00;29.60;;;;;;;;;;5076704;28;20203;-88
2021/01/15 08:08:03;;;;;;;38.77;19.73;;;;;;;;;;5077043;28;20708;-88
2021/01/15 08:10:28;;;;;;;37.47;21.30;;;;;;;;;;5076772;28;20171;-88
2021/01/15 08:12:53;;;;;;;66.10;33.43;;;;;;;;;;5076971;28;20182;-88
2021/01/15 08:15:28;;;;;;;44.57;25.73;;;;;;;;;;5076172;28;20622;-87
2021/01/15 08:17:54;;;;;;;30.27;18.67;;;;;;;;;;5075991;28;20184;-88
2021/01/15 08:20:19;;;;;;;31.13;17.83;;;;;;;;;;5076299;28;20168;-87
2021/01/15 08:22:47;;;;;;;55.57;31.17;;;;;;;;;;5076144;28;20676;-83
2021/01/15 08:25:25;;;;;;;40.77;23.87;;;;;;;;;;5071352;28;20225;-87
2021/01/15 08:27:51;;;;;;;91.13;49.03;;;;;;;;;;5075731;28;20167;-87
2021/01/15 08:30:17;;;;;;;53.27;28.93;;;;;;;;;;5075777;28;20166;-88
2021/01/15 08:32:42;;;;;;;39.23;21.17;;;;;;;;;;5075998;28;20171;-87
2021/01/15 08:35:10;;;;;;;39.83;24.27;;;;;;;;;;5075240;28;20183;-88
2021/01/15 08:37:37;;;;;;;63.40;35.43;;;;;;;;;;5075170;28;20176;-88
2021/01/15 08:40:03;;;;;;;36.27;21.07;;;;;;;;;;5075714;28;20167;-87
2021/01/15 08:42:30;;;;;;;40.13;20.80;;;;;;;;;;5076363;28;20610;-84
2021/01/15 08:44:57;;;;;;;58.27;24.23;;;;;;;;;;5075415;28;20226;-87
2021/01/15 08:47:23;;;;;;;25.60;12.90;;;;;;;;;;5084354;28;20231;-87
2021/01/15 08:49:58;;;;;;;23.73;14.07;;;;;;;;;;5076334;28;20254;-86
2021/01/15 08:52:28;;;;;;;23.07;12.50;;;;;;;;;;5075640;28;20174;-87
2021/01/15 08:54:54;;;;;;;63.80;39.53;;;;;;;;;;5075339;28;20163;-86
2021/01/15 08:57:20;;;;;;;23.13;13.70;;;;;;;;;;5072917;28;20252;-86
2021/01/15 08:59:45;;;;;;;39.50;19.03;;;;;;;;;;5074293;28;20274;-86
2021/01/15 09:02:10;;;;;;;29.63;16.53;;;;;;;;;;5075757;28;20720;-86
2021/01/15 09:04:36;;;;;;;47.40;25.50;;;;;;;;;;5075344;28;20199;-86
2021/01/15 09:07:05;;;;;;;50.53;28.17;;;;;;;;;;5075696;28;20551;-87
2021/01/15 09:09:31;;;;;;;40.07;22.93;;;;;;;;;;5073977;28;20267;-88
2021/01/15 09:12:00;;;;;;;43.63;24.33;;;;;;;;;;5075248;28;20194;-85
2021/01/15 09:14:27;;;;;;;44.30;23.90;;;;;;;;;;5075060;28;20175;-85
2021/01/15 09:16:55;;;;;;;51.53;25.57;;;;;;;;;;5075152;28;20214;-85
2021/01/15 09:19:21;;;;;;;30.47;16.27;;;;;;;;;;5075211;28;20171;-85
2021/01/15 09:21:50;;;;;;;30.43;17.97;;;;;;;;;;5074748;28;20662;-85
2021/01/15 09:24:16;;;;;;;58.23;34.40;;;;;;;;;;5074946;28;20757;-87
2021/01/15 09:26:42;;;;;;;45.83;28.37;;;;;;;;;;5066616;28;20274;-84
2021/01/15 09:29:07;;;;;;;52.27;31.73;;;;;;;;;;5055003;28;20611;-84
2021/01/15 09:31:44;;;;;;;104.17;47.67;;;;;;;;;;5054978;28;20203;-86
2021/01/15 09:34:19;;;;;;;191.83;91.93;;;;;;;;;;5049783;28;20188;-85
2021/01/15 09:36:45;;;;;;;76.17;40.57;;;;;;;;;;5053580;28;20179;-86
2021/01/15 09:39:11;;;;;;;36.73;21.17;;;;;;;;;;5054827;28;20160;-86
2021/01/15 09:41:47;;;;;;;47.17;23.03;;;;;;;;;;5054445;28;20520;-86
2021/01/15 09:44:12;;;;;;;30.67;16.67;;;;;;;;;;5054808;28;20534;-88
2021/01/15 09:46:38;;;;;;;28.30;14.87;;;;;;;;;;5054865;28;20232;-86
2021/01/15 09:49:04;;;;;;;20.17;12.03;;;;;;;;;;5054471;28;20176;-86
2021/01/15 09:51:29;;;;;;;28.00;15.10;;;;;;;;;;5070472;28;20281;-86
2021/01/15 09:53:55;;;;;;;19.67;12.33;;;;;;;;;;5074411;28;20167;-86
2021/01/15 09:56:21;;;;;;;76.33;37.10;;;;;;;;;;5073826;28;20257;-86
2021/01/15 09:58:47;;;;;;;25.10;14.03;;;;;;;;;;5074248;28;20262;-86
2021/01/15 10:01:12;;;;;;;24.80;13.70;;;;;;;;;;5071074;28;20313;-86
2021/01/15 10:03:37;;;;;;;31.23;19.00;;;;;;;;;;5071779;28;20183;-85
2021/01/15 10:06:03;;;;;;;37.97;22.03;;;;;;;;;;5070759;28;20223;-85
2021/01/15 10:08:28;;;;;;;31.87;17.53;;;;;;;;;;5071442;28;20197;-85
2021/01/15 10:10:54;;;;;;;42.20;24.47;;;;;;;;;;5072311;28;20633;-85
2021/01/15 10:13:19;;;;;;;29.43;15.83;;;;;;;;;;5073249;28;20164;-85
2021/01/15 10:15:45;;;;;;;37.67;20.30;;;;;;;;;;5072063;28;20187;-85
2021/01/15 10:18:11;;;;;;;30.03;16.67;;;;;;;;;;5073337;28;20265;-85
2021/01/15 10:20:42;;;;;;;20.70;11.47;;;;;;;;;;5072799;28;20202;-85
2021/01/15 10:23:08;;;;;;;50.53;30.93;;;;;;;;;;5073157;28;20159;-84
2021/01/15 10:25:35;;;;;;;28.23;14.47;;;;;;;;;;5072954;28;20203;-85
2021/01/15 10:28:00;;;;;;;69.13;40.80;;;;;;;;;;5073066;28;20231;-86
2021/01/15 10:30:26;;;;;;;32.77;21.87;;;;;;;;;;5072785;28;20652;-87
2021/01/15 10:32:51;;;;;;;43.20;24.23;;;;;;;;;;5071786;28;20634;-86
2021/01/15 10:35:22;;;;;;;29.57;17.90;;;;;;;;;;5072827;28;20257;-85
2021/01/15 10:37:50;;;;;;;56.70;28.93;;;;;;;;;;5071009;28;20285;-86
2021/01/15 10:40:17;;;;;;;168.83;63.93;;;;;;;;;;5072620;28;20175;-86
2021/01/15 10:42:44;;;;;;;136.77;55.73;;;;;;;;;;5072713;28;20173;-86
2021/01/15 10:45:09;;;;;;;211.70;82.70;;;;;;;;;;5072660;28;20202;-86
2021/01/15 10:47:44;;;;;;;287.60;99.07;;;;;;;;;;5073146;28;20986;-86
2021/01/15 10:50:09;;;;;;;120.93;45.53;;;;;;;;;;5072802;28;20585;-86
2021/01/15 10:52:35;;;;;;;76.63;30.80;;;;;;;;;;5072725;28;20263;-85
2021/01/15 10:55:04;;;;;;;58.87;27.27;;;;;;;;;;5072403;28;20190;-86
2021/01/15 10:57:29;;;;;;;70.07;33.70;;;;;;;;;;5072384;28;20191;-86
2021/01/15 10:59:54;;;;;;;44.03;22.20;;;;;;;;;;5066466;28;20656;-86
2021/01/15 11:02:20;;;;;;;81.37;37.40;;;;;;;;;;5050987;28;20871;-86
2021/01/15 11:04:46;;;;;;;60.03;27.20;;;;;;;;;;5052659;28;20211;-86
2021/01/15 11:07:11;;;;;;;56.77;28.03;;;;;;;;;;5052252;28;20688;-86
2021/01/15 11:09:37;;;;;;;51.97;25.37;;;;;;;;;;5051398;28;20211;-87
2021/01/15 11:12:04;;;;;;;39.37;19.93;;;;;;;;;;5051450;28;20187;-86
2021/01/15 11:14:31;;;;;;;36.93;20.27;;;;;;;;;;5052622;28;20610;-86
2021/01/15 11:16:58;;;;;;;36.33;20.87;;;;;;;;;;5052648;28;20229;-86
2021/01/15 11:19:23;;;;;;;24.27;14.53;;;;;;;;;;5051953;28;20164;-84
2021/01/15 11:21:50;;;;;;;35.03;18.53;;;;;;;;;;5053885;28;20247;-86
2021/01/15 11:24:16;;;;;;;36.53;21.07;;;;;;;;;;5071359;28;20578;-85
2021/01/15 11:26:41;;;;;;;34.53;20.30;;;;;;;;;;5075099;28;20167;-85
2021/01/15 11:29:09;;;;;;;28.40;16.77;;;;;;;;;;5075455;28;20312;-85
2021/01/15 11:31:35;;;;;;;50.97;29.50;;;;;;;;;;5074916;28;20533;-86
2021/01/15 11:34:00;;;;;;;35.30;19.77;;;;;;;;;;5073692;28;20175;-85
2021/01/15 11:36:32;;;;;;;34.17;19.33;;;;;;;;;;5074688;28;20179;-85
2021/01/15 11:38:59;;;;;;;23.10;13.90;;;;;;;;;;5074608;28;20170;-86
2021/01/15 11:41:26;;;;;;;23.10;13.07;;;;;;;;;;5074297;28;20261;-85
2021/01/15 11:43:51;;;;;;;41.57;23.33;;;;;;;;;;5069462;28;20236;-85
2021/01/15 11:46:16;;;;;;;23.73;14.13;;;;;;;;;;5073607;28;20568;-85
2021/01/15 11:48:42;;;;;;;30.40;16.20;;;;;;;;;;5074028;28;20179;-85
2021/01/15 11:51:10;;;;;;;31.27;16.27;;;;;;;;;;5075507;28;20254;-85
2021/01/15 11:53:39;;;;;;;47.80;21.20;;;;;;;;;;5073800;28;20179;-85
2021/01/15 11:56:08;;;;;;;56.57;23.63;;;;;;;;;;5072508;28;20209;-85
2021/01/15 11:58:33;;;;;;;37.50;19.13;;;;;;;;;;5073784;28;20171;-85
2021/01/15 12:00:59;;;;;;;46.53;22.10;;;;;;;;;;5073214;28;20226;-85
2021/01/15 12:03:25;;;;;;;53.50;24.17;;;;;;;;;;5075038;28;20261;-85
2021/01/15 12:05:51;;;;;;;45.80;23.80;;;;;;;;;;5075221;28;20196;-85
2021/01/15 12:08:17;;;;;;;75.63;31.87;;;;;;;;;;5074761;28;20174;-85
2021/01/15 12:10:42;;;;;;;46.67;24.80;;;;;;;;;;5075041;28;20254;-86
2021/01/15 12:13:07;;;;;;;31.03;15.67;;;;;;;;;;5074866;28;20537;-85
2021/01/15 12:15:33;;;;;;;34.37;19.00;;;;;;;;;;5072558;28;20266;-84
2021/01/15 12:17:58;;;;;;;35.20;19.37;;;;;;;;;;5072755;28;20175;-84
2021/01/15 12:20:24;;;;;;;40.00;21.60;;;;;;;;;;5073734;28;20634;-86
2021/01/15 12:22:49;;;;;;;46.57;24.00;;;;;;;;;;5073778;28;20171;-86
2021/01/15 12:25:14;;;;;;;25.87;15.77;;;;;;;;;;5075000;28;20685;-88
2021/01/15 12:27:40;;;;;;;34.60;20.73;;;;;;;;;;5083727;28;20600;-85
2021/01/15 12:30:06;;;;;;;33.63;18.07;;;;;;;;;;5094945;28;20191;-85
2021/01/15 12:32:31;;;;;;;27.60;14.97;;;;;;;;;;5094243;28;20538;-85
2021/01/15 12:34:57;;;;;;;29.13;15.87;;;;;;;;;;5092515;28;20181;-85
2021/01/15 12:37:23;;;;;;;42.57;23.37;;;;;;;;;;5093455;28;20170;-85
2021/01/15 12:39:48;;;;;;;28.83;16.27;;;;;;;;;;5093649;28;20248;-86
2021/01/15 12:42:14;;;;;;;31.77;17.27;;;;;;;;;;5089180;28;20189;-89
2021/01/15 12:44:39;;;;;;;28.90;15.30;;;;;;;;;;5073702;28;20214;-87
2021/01/15 12:47:05;;;;;;;29.20;15.50;;;;;;;;;;5074685;28;20262;-85
2021/01/15 12:49:31;;;;;;;33.30;18.47;;;;;;;;;;5074688;28;20167;-86
2021/01/15 12:51:56;;;;;;;31.83;15.23;;;;;;;;;;5074703;28;20659;-87
2021/01/15 12:54:21;;;;;;;32.10;16.90;;;;;;;;;;5074151;28;20217;-86
2021/01/15 12:56:47;;;;;;;32.20;18.53;;;;;;;;;;5073737;28;20594;-86
2021/01/15 12:59:13;;;;;;;30.67;16.80;;;;;;;;;;5094998;28;20177;-86
2021/01/15 13:01:39;;;;;;;44.43;23.27;;;;;;;;;;5094366;28;20218;-86
2021/01/15 13:04:05;;;;;;;39.63;19.33;;;;;;;;;;5093103;28;20628;-86
2021/01/15 13:06:42;;;;;;;44.33;21.23;;;;;;;;;;5094693;28;20194;-85
2021/01/15 13:09:10;;;;;;;39.07;22.33;;;;;;;;;;5094739;28;20189;-86
2021/01/15 13:11:36;;;;;;;45.83;25.87;;;;;;;;;;5092765;28;20197;-85
2021/01/15 13:14:01;;;;;;;36.53;18.93;;;;;;;;;;5093236;28;20629;-85
2021/01/15 13:16:27;;;;;;;51.43;26.07;;;;;;;;;;5093204;28;20197;-86
2021/01/15 13:18:56;;;;;;;35.00;17.93;;;;;;;;;;5093086;28;20181;-85
2021/01/15 13:21:22;;;;;;;30.90;17.13;;;;;;;;;;5094654;28;20257;-86
2021/01/15 13:23:47;;;;;;;36.43;19.10;;;;;;;;;;5093215;28;20593;-85
2021/01/15 13:26:15;;;;;;;50.17;27.00;;;;;;;;;;5094213;28;20171;-86
2021/01/15 13:28:40;;;;;;;64.93;30.50;;;;;;;;;;5094405;28;20167;-85
2021/01/15 13:31:06;;;;;;;27.53;16.63;;;;;;;;;;5094465;28;20233;-85
2021/01/15 13:33:34;;;;;;;80.13;32.63;;;;;;;;;;5091613;28;20227;-85
2021/01/15 13:36:00;;;;;;;40.33;21.20;;;;;;;;;;5093109;28;20178;-86
2021/01/15 13:38:25;;;;;;;42.50;23.77;;;;;;;;;;5092776;28;20204;-85
2021/01/15 13:40:50;;;;;;;58.57;27.20;;;;;;;;;;5091516;28;20647;-85
2021/01/15 13:43:16;;;;;;;43.63;24.20;;;;;;;;;;5092134;28;20174;-86
2021/01/15 13:45:43;;;;;;;46.23;24.30;;;;;;;;;;5092764;28;20228;-86
2021/01/15 13:48:09;;;;;;;38.20;21.53;;;;;;;;;;5087646;28;20304;-86
2021/01/15 13:50:45;;;;;;;32.30;18.47;;;;;;;;;;5072434;28;20265;-87
2021/01/15 13:53:10;;;;;;;42.77;22.50;;;;;;;;;;5076148;28;20175;-86
2021/01/15 13:55:35;;;;;;;54.93;27.10;;;;;;;;;;5073472;28;20194;-85
2021/01/15 13:58:01;;;;;;;39.17;19.43;;;;;;;;;;5073446;28;20214;-85
2021/01/15 14:00:26;;;;;;;88.23;32.83;;;;;;;;;;5073212;28;20626;-85
2021/01/15 14:02:51;;;;;;;61.13;24.60;;;;;;;;;;5073032;28;20219;-85
2021/01/15 14:05:17;;;;;;;42.17;19.87;;;;;;;;;;5073162;28;20229;-85
2021/01/15 14:07:46;;;;;;;34.67;19.27;;;;;;;;;;5072815;28;20607;-85
2021/01/15 14:10:11;;;;;;;44.43;24.27;;;;;;;;;;5073375;28;20171;-85
2021/01/15 14:12:37;;;;;;;51.60;28.27;;;;;;;;;;5072757;28;20182;-85
2021/01/15 14:15:03;;;;;;;37.30;21.10;;;;;;;;;;5073467;28;20178;-85
2021/01/15 14:17:30;;;;;;;33.13;19.67;;;;;;;;;;5073481;28;20171;-85
2021/01/15 14:19:56;;;;;;;34.87;18.77;;;;;;;;;;5078080;28;20171;-84
2021/01/15 14:22:21;;;;;;;59.93;28.73;;;;;;;;;;5092389;28;20186;-86